createdAt,value
2022-12-03T00:02:23.237Z,10.45
2022-12-03T00:04:51.086Z,9.95
2022-12-03T00:07:18.499Z,9.65
2022-12-03T00:09:45.625Z,10.18
2022-12-03T00:12:12.846Z,10.68
2022-12-03T00:14:53.255Z,10.43
2022-12-03T00:17:20.596Z,9.27
2022-12-03T00:19:47.713Z,10.10
2022-12-03T00:22:14.874Z,9.95
2022-12-03T00:24:42.050Z,9.70
2022-12-03T00:27:09.231Z,9.90
2022-12-03T00:29:36.374Z,9.10
2022-12-03T00:32:03.511Z,8.65
2022-12-03T00:34:30.627Z,10.10
2022-12-03T00:36:57.773Z,9.38
2022-12-03T00:39:24.987Z,9.38
2022-12-03T00:41:52.113Z,9.55
2022-12-03T00:44:19.275Z,9.82
2022-12-03T00:46:46.516Z,9.48
2022-12-03T00:49:13.754Z,9.15
2022-12-03T00:51:40.932Z,9.25
2022-12-03T00:54:08.346Z,10.13
2022-12-03T00:56:35.492Z,9.38
2022-12-03T00:59:02.656Z,8.82
2022-12-03T01:01:29.854Z,8.82
2022-12-03T01:03:57.196Z,9.48
2022-12-03T01:06:24.296Z,8.40
2022-12-03T01:08:51.413Z,8.75
2022-12-03T01:11:37.446Z,8.85
2022-12-03T01:14:25.179Z,8.82
2022-12-03T01:16:52.300Z,9.30
2022-12-03T01:19:19.603Z,9.07
2022-12-03T01:21:48.640Z,9.30
2022-12-03T01:24:15.835Z,9.82
2022-12-03T01:26:43.102Z,8.82
2022-12-03T01:29:10.386Z,10.00
2022-12-03T01:31:56.458Z,9.38
2022-12-03T01:34:23.665Z,9.55
2022-12-03T01:36:52.459Z,9.73
2022-12-03T01:39:19.908Z,8.82
2022-12-03T01:41:47.550Z,9.13
2022-12-03T01:44:17.171Z,9.95
2022-12-03T01:46:45.159Z,9.05
2022-12-03T01:49:17.757Z,9.18
2022-12-03T01:51:45.133Z,8.93
2022-12-03T01:54:16.627Z,9.75
2022-12-03T01:56:43.856Z,9.00
2022-12-03T01:59:14.453Z,9.48
2022-12-03T02:01:41.674Z,8.40
2022-12-03T02:04:10.889Z,9.52
2022-12-03T02:06:38.091Z,10.40
2022-12-03T02:09:08.458Z,8.43
2022-12-03T02:11:38.018Z,9.23
2022-12-03T02:14:09.821Z,9.30
2022-12-03T02:16:37.832Z,8.77
2022-12-03T02:19:08.569Z,9.10
2022-12-03T02:21:35.724Z,9.00
2022-12-03T02:24:10.191Z,8.20
2022-12-03T02:26:37.326Z,9.07
2022-12-03T02:29:04.522Z,9.40
2022-12-03T02:31:32.304Z,9.40
2022-12-03T02:33:59.520Z,8.95
2022-12-03T02:36:26.817Z,10.13
2022-12-03T02:38:53.986Z,9.00
2022-12-03T02:41:39.993Z,8.60
2022-12-03T02:44:07.915Z,9.27
2022-12-03T02:46:35.175Z,8.10
2022-12-03T02:49:03.280Z,7.75
2022-12-03T02:51:30.573Z,9.43
2022-12-03T02:53:57.840Z,8.60
2022-12-03T02:56:27.630Z,8.57
2022-12-03T02:58:57.126Z,7.78
2022-12-03T03:01:24.350Z,8.48
2022-12-03T03:03:52.044Z,9.52
2022-12-03T03:06:19.907Z,9.00
2022-12-03T03:08:47.162Z,7.90
2022-12-03T03:11:15.006Z,9.02
2022-12-03T03:13:42.238Z,9.20
2022-12-03T03:16:09.940Z,8.38
2022-12-03T03:18:37.406Z,8.32
2022-12-03T03:21:05.053Z,8.95
2022-12-03T03:23:32.276Z,8.48
2022-12-03T03:26:05.529Z,9.25
2022-12-03T03:28:33.145Z,8.75
2022-12-03T03:31:03.210Z,9.02
2022-12-03T03:33:30.737Z,8.38
2022-12-03T03:35:59.915Z,9.70
2022-12-03T03:38:27.898Z,9.38
2022-12-03T03:40:55.188Z,8.38
2022-12-03T03:43:23.126Z,8.65
2022-12-03T03:45:51.317Z,8.50
2022-12-03T03:48:18.936Z,9.10
2022-12-03T03:50:46.307Z,8.77
2022-12-03T03:53:13.904Z,8.73
2022-12-03T03:55:41.148Z,9.07
2022-12-03T03:58:08.640Z,8.02
2022-12-03T04:00:36.530Z,8.77
2022-12-03T04:03:04.497Z,8.65
2022-12-03T04:05:31.738Z,8.40
2022-12-03T04:07:59.304Z,9.45
2022-12-03T04:10:45.430Z,9.18
2022-12-03T04:13:12.722Z,8.50
2022-12-03T04:15:39.853Z,9.00
2022-12-03T04:18:25.616Z,8.55
2022-12-03T04:21:12.702Z,9.00
2022-12-03T04:23:39.882Z,8.63
2022-12-03T04:26:45.379Z,8.70
2022-12-03T04:29:12.796Z,8.00
2022-12-03T04:31:58.444Z,8.70
2022-12-03T04:34:44.283Z,8.60
2022-12-03T04:37:12.598Z,8.90
2022-12-03T04:39:39.734Z,8.57
2022-12-03T04:42:07.041Z,9.30
2022-12-03T04:44:37.613Z,7.88
2022-12-03T04:47:04.881Z,8.38
2022-12-03T04:49:32.253Z,9.32
2022-12-03T04:51:59.357Z,7.97
2022-12-03T04:54:27.288Z,8.40
2022-12-03T04:56:54.562Z,8.98
2022-12-03T04:59:21.773Z,8.35
2022-12-03T05:01:48.985Z,9.10
2022-12-03T05:04:16.280Z,8.20
2022-12-03T05:06:43.497Z,8.60
2022-12-03T05:09:11.044Z,8.40
2022-12-03T05:11:38.188Z,8.32
2022-12-03T05:14:05.546Z,8.23
2022-12-03T05:16:32.913Z,8.15
2022-12-03T05:19:00.113Z,8.68
2022-12-03T05:21:27.296Z,8.80
2022-12-03T05:23:54.529Z,8.95
2022-12-03T05:26:21.760Z,8.02
2022-12-03T05:28:48.940Z,9.30
2022-12-03T05:31:16.439Z,8.93
2022-12-03T05:33:44.550Z,8.45
2022-12-03T05:36:11.889Z,8.38
2022-12-03T05:38:39.112Z,8.70
2022-12-03T05:41:26.317Z,7.97
2022-12-03T05:43:53.478Z,8.40
2022-12-03T05:46:20.690Z,8.85
2022-12-03T05:48:47.985Z,8.52
2022-12-03T05:51:15.104Z,8.68
2022-12-03T05:53:42.305Z,9.10
2022-12-03T05:56:09.493Z,8.80
2022-12-03T05:58:36.664Z,8.60
2022-12-03T06:01:03.838Z,9.10
2022-12-03T06:03:31.285Z,8.82
2022-12-03T06:05:58.532Z,8.00
2022-12-03T06:08:25.702Z,8.23
2022-12-03T06:10:52.871Z,8.35
2022-12-03T06:13:20.094Z,8.60
2022-12-03T06:15:47.356Z,7.88
2022-12-03T06:18:14.619Z,8.43
2022-12-03T06:20:41.804Z,8.90
2022-12-03T06:23:09.056Z,8.50
2022-12-03T06:25:36.304Z,9.20
2022-12-03T06:28:03.484Z,8.30
2022-12-03T06:30:30.692Z,8.07
2022-12-03T06:32:57.864Z,9.43
2022-12-03T06:35:25.031Z,8.70
2022-12-03T06:37:52.569Z,8.50
2022-12-03T06:40:19.849Z,8.15
2022-12-03T06:42:46.987Z,8.38
2022-12-03T06:45:14.172Z,8.90
2022-12-03T06:47:41.404Z,8.43
2022-12-03T06:50:09.246Z,8.45
2022-12-03T06:52:36.467Z,8.93
2022-12-03T06:55:03.690Z,8.95
2022-12-03T06:57:31.013Z,8.93
2022-12-03T06:59:58.299Z,9.23
2022-12-03T07:02:26.725Z,9.52
2022-12-03T07:04:54.174Z,9.90
2022-12-03T07:07:21.751Z,9.15
2022-12-03T07:09:48.931Z,9.75
2022-12-03T07:12:16.188Z,9.15
2022-12-03T07:14:43.312Z,9.63
2022-12-03T07:17:10.800Z,9.88
2022-12-03T07:19:37.974Z,9.77
2022-12-03T07:22:05.660Z,9.82
2022-12-03T07:24:32.859Z,9.35
2022-12-03T07:27:00.027Z,9.50
2022-12-03T07:29:27.164Z,8.90
2022-12-03T07:31:54.441Z,10.48
2022-12-03T07:34:21.742Z,9.55
2022-12-03T07:36:48.838Z,9.60
2022-12-03T07:39:16.080Z,10.23
2022-12-03T07:41:43.204Z,9.20
2022-12-03T07:44:14.329Z,9.63
2022-12-03T07:46:42.483Z,10.48
2022-12-03T07:49:09.873Z,11.10
2022-12-03T07:51:37.103Z,9.73
2022-12-03T07:54:04.505Z,10.95
2022-12-03T07:56:31.748Z,11.05
2022-12-03T07:58:58.878Z,10.73
2022-12-03T08:01:26.152Z,10.55
2022-12-03T08:03:53.365Z,11.70
2022-12-03T08:06:20.473Z,11.40
2022-12-03T08:08:47.614Z,11.55
2022-12-03T08:11:15.062Z,11.30
2022-12-03T08:13:42.266Z,11.38
2022-12-03T08:16:19.695Z,11.30
2022-12-03T08:18:47.550Z,12.85
2022-12-03T08:21:15.901Z,11.65
2022-12-03T08:23:43.135Z,12.10
2022-12-03T08:26:20.315Z,12.90
2022-12-03T08:28:47.560Z,12.85
2022-12-03T08:31:20.090Z,12.05
2022-12-03T08:33:54.279Z,12.18
2022-12-03T08:36:30.371Z,11.73
2022-12-03T08:39:01.377Z,13.10
2022-12-03T08:41:48.844Z,11.55
2022-12-03T08:44:24.750Z,12.40
2022-12-03T08:49:19.841Z,12.25
2022-12-03T08:51:49.538Z,12.02
2022-12-03T08:54:19.035Z,12.48
2022-12-03T08:56:46.264Z,13.43
2022-12-03T08:59:22.348Z,12.30
2022-12-03T09:01:49.756Z,12.38
2022-12-03T09:04:26.168Z,12.82
2022-12-03T09:06:53.738Z,12.13
2022-12-03T09:09:21.541Z,13.18
2022-12-03T09:11:48.715Z,13.20
2022-12-03T09:14:18.895Z,11.93
2022-12-03T09:16:46.363Z,12.00
2022-12-03T09:19:13.511Z,11.68
2022-12-03T09:21:40.617Z,12.23
2022-12-03T09:24:07.909Z,12.00
2022-12-03T09:26:35.356Z,12.35
2022-12-03T09:29:05.262Z,12.55
2022-12-03T09:31:34.980Z,12.00
2022-12-03T09:34:03.218Z,15.05
2022-12-03T09:36:30.433Z,16.63
2022-12-03T09:38:57.988Z,16.30
2022-12-03T09:41:25.623Z,14.68
2022-12-03T09:44:15.550Z,14.25
2022-12-03T09:46:40.901Z,15.45
2022-12-03T09:49:13.951Z,15.48
2022-12-03T09:51:43.316Z,14.63
2022-12-03T09:54:10.996Z,15.65
2022-12-03T09:56:38.687Z,16.00
2022-12-03T09:59:15.582Z,14.60
2022-12-03T10:01:42.843Z,192.05
2022-12-03T10:04:11.187Z,99.90
2022-12-03T10:06:43.996Z,102.78
2022-12-03T10:09:14.545Z,78.10
2022-12-03T10:11:41.768Z,86.43
2022-12-03T10:14:11.514Z,71.47
2022-12-03T10:16:40.331Z,40.92
2022-12-03T10:19:07.705Z,36.55
2022-12-03T10:21:38.474Z,34.58
2022-12-03T10:24:17.572Z,31.17
2022-12-03T10:26:45.430Z,30.42
2022-12-03T10:29:20.029Z,30.40
2022-12-03T10:31:54.951Z,31.45
2022-12-03T10:34:30.732Z,30.17
2022-12-03T10:39:24.959Z,29.20
2022-12-03T10:41:54.461Z,28.67
2022-12-03T10:44:22.565Z,29.90
2022-12-03T10:47:06.123Z,27.83
2022-12-03T10:49:36.832Z,28.58
2022-12-03T10:52:04.431Z,27.23
2022-12-03T10:54:32.397Z,28.38
2022-12-03T10:57:00.876Z,26.88
2022-12-03T10:59:32.677Z,29.02
2022-12-03T11:01:59.968Z,27.80
2022-12-03T11:04:34.816Z,27.70
2022-12-03T11:07:12.897Z,27.08
2022-12-03T11:09:40.266Z,28.08
2022-12-03T11:12:08.170Z,28.35
2022-12-03T11:14:51.425Z,27.33
2022-12-03T11:17:37.841Z,26.80
2022-12-03T11:20:05.587Z,26.30
2022-12-03T11:22:40.574Z,24.98
2022-12-03T11:25:26.316Z,26.30
2022-12-03T11:28:15.458Z,25.30
2022-12-03T11:30:52.112Z,25.40
2022-12-03T11:33:33.061Z,25.17
2022-12-03T11:36:06.198Z,27.10
2022-12-03T11:38:40.886Z,24.30
2022-12-03T11:41:11.280Z,24.65
2022-12-03T11:43:53.691Z,24.52
2022-12-03T11:46:22.934Z,24.90
2022-12-03T11:48:52.748Z,22.77
2022-12-03T11:51:22.012Z,22.98
2022-12-03T11:53:49.659Z,23.75
2022-12-03T11:56:21.411Z,24.27
2022-12-03T11:58:48.666Z,23.25
2022-12-03T12:01:16.415Z,24.33
2022-12-03T12:03:43.658Z,24.73
2022-12-03T12:06:12.231Z,25.08
2022-12-03T12:08:40.997Z,26.20
2022-12-03T12:11:21.065Z,24.77
2022-12-03T12:13:52.579Z,25.77
2022-12-03T12:16:41.672Z,26.35
2022-12-03T12:19:27.790Z,25.70
2022-12-03T12:21:55.321Z,26.40
2022-12-03T12:24:38.178Z,27.90
2022-12-03T12:27:07.417Z,26.30
2022-12-03T12:29:35.393Z,27.60
2022-12-03T12:32:17.598Z,28.27
2022-12-03T12:34:46.141Z,28.88
2022-12-03T12:37:22.428Z,26.52
2022-12-03T12:39:53.447Z,27.88
2022-12-03T12:42:30.217Z,30.50
2022-12-03T12:44:59.456Z,30.92
2022-12-03T12:47:26.678Z,30.35
2022-12-03T12:49:54.196Z,121.97
2022-12-03T12:52:21.505Z,82.63
2022-12-03T12:54:48.807Z,71.35
2022-12-03T12:57:21.273Z,68.75
2022-12-03T12:59:48.658Z,63.95
2022-12-03T13:02:35.991Z,61.10
2022-12-03T13:05:04.664Z,60.42
2022-12-03T13:07:32.570Z,56.80
2022-12-03T13:10:01.054Z,53.80
2022-12-03T13:12:28.248Z,51.40
2022-12-03T13:14:57.561Z,48.67
2022-12-03T13:17:26.068Z,47.38
2022-12-03T13:20:03.608Z,48.60
2022-12-03T13:22:34.090Z,46.78
2022-12-03T13:25:50.607Z,44.88
2022-12-03T13:28:17.271Z,41.95
2022-12-03T13:30:44.453Z,43.70
2022-12-03T13:33:26.387Z,39.88
2022-12-03T13:35:54.621Z,41.42
2022-12-03T13:38:23.568Z,39.80
2022-12-03T13:40:59.064Z,39.95
2022-12-03T13:43:29.338Z,36.67
2022-12-03T13:45:56.686Z,37.25
2022-12-03T13:48:25.432Z,38.83
2022-12-03T13:50:53.236Z,39.38
2022-12-03T13:53:26.418Z,36.35
2022-12-03T13:55:59.050Z,36.40
2022-12-03T13:58:26.198Z,36.50
2022-12-03T14:00:53.447Z,34.75
2022-12-03T14:03:20.987Z,36.03
2022-12-03T14:05:48.200Z,35.10
2022-12-03T14:08:15.412Z,32.70
2022-12-03T14:10:42.736Z,33.40
2022-12-03T14:13:09.884Z,31.98
2022-12-03T14:15:38.496Z,33.47
2022-12-03T14:18:05.701Z,31.90
2022-12-03T14:20:38.142Z,30.92
2022-12-03T14:23:05.293Z,30.48
2022-12-03T14:25:37.720Z,32.05
2022-12-03T14:28:08.690Z,31.08
2022-12-03T14:30:38.603Z,33.00
2022-12-03T14:33:05.784Z,29.55
2022-12-03T14:35:32.907Z,29.30
2022-12-03T14:38:00.113Z,27.63
2022-12-03T14:40:28.324Z,28.60
2022-12-03T14:42:55.833Z,29.65
2022-12-03T14:45:24.180Z,29.38
2022-12-03T14:47:51.338Z,27.63
2022-12-03T14:50:18.524Z,26.60
2022-12-03T14:52:52.194Z,26.80
2022-12-03T14:55:19.684Z,25.20
2022-12-03T14:57:46.964Z,26.88
2022-12-03T15:00:14.552Z,27.02
2022-12-03T15:02:41.796Z,26.05
2022-12-03T15:05:09.038Z,27.17
2022-12-03T15:07:38.610Z,25.98
2022-12-03T15:10:07.114Z,24.30
2022-12-03T15:12:34.673Z,24.90
2022-12-03T15:15:01.853Z,25.23
2022-12-03T15:17:31.879Z,24.63
2022-12-03T15:19:59.624Z,25.40
2022-12-03T15:22:26.795Z,22.75
2022-12-03T15:24:54.018Z,23.63
2022-12-03T15:27:26.469Z,24.58
2022-12-03T15:29:53.787Z,23.27
2022-12-03T15:32:23.501Z,22.73
2022-12-03T15:37:32.795Z,24.70
2022-12-03T15:39:59.977Z,23.33
2022-12-03T15:42:29.647Z,23.63
2022-12-03T15:44:56.835Z,21.40
2022-12-03T15:47:24.135Z,22.20
2022-12-03T15:49:51.708Z,21.88
2022-12-03T15:52:19.149Z,20.40
2022-12-03T15:54:46.475Z,22.45
2022-12-03T15:57:13.621Z,24.45
2022-12-03T15:59:40.784Z,21.33
2022-12-03T16:02:08.046Z,21.85
2022-12-03T16:07:19.976Z,21.98
2022-12-03T16:09:52.172Z,21.58
2022-12-03T16:12:19.565Z,21.70
2022-12-03T16:14:47.015Z,21.13
2022-12-03T16:17:14.141Z,20.92
2022-12-03T16:19:41.363Z,22.33
2022-12-03T16:22:08.555Z,22.20
2022-12-03T16:24:35.784Z,21.35
2022-12-03T16:27:02.978Z,21.90
2022-12-03T16:29:30.162Z,21.25
2022-12-03T16:31:57.321Z,21.25
2022-12-03T16:34:24.749Z,22.30
2022-12-03T16:36:52.204Z,22.52
2022-12-03T16:39:19.580Z,23.23
2022-12-03T16:41:46.794Z,21.42
2022-12-03T16:44:30.417Z,22.58
2022-12-03T16:47:33.780Z,21.83
2022-12-03T16:50:24.316Z,20.25
2022-12-03T16:52:54.764Z,22.42
2022-12-03T16:55:21.948Z,21.77
2022-12-03T16:57:49.309Z,20.67
2022-12-03T17:00:16.837Z,20.95
2022-12-03T17:02:44.170Z,20.95
2022-12-03T17:05:11.500Z,20.00
2022-12-03T17:07:38.780Z,21.83
2022-12-03T17:10:06.605Z,20.30
2022-12-03T17:13:01.136Z,20.85
2022-12-03T17:15:21.024Z,20.35
2022-12-03T17:18:03.749Z,21.08
2022-12-03T17:20:31.597Z,20.83
2022-12-03T17:22:59.297Z,21.10
2022-12-03T17:25:26.942Z,23.50
2022-12-03T17:27:54.450Z,199.15
2022-12-03T17:30:21.712Z,126.97
2022-12-03T17:32:50.356Z,102.55
2022-12-03T17:35:18.446Z,103.95
2022-12-03T17:37:45.769Z,104.65
2022-12-03T17:40:13.791Z,104.85
2022-12-03T17:42:41.042Z,104.28
2022-12-03T17:45:08.549Z,113.30
2022-12-03T17:47:35.765Z,107.50
2022-12-03T17:50:03.038Z,100.65
2022-12-03T17:52:30.224Z,101.68
2022-12-03T17:55:18.070Z,101.93
2022-12-03T17:57:44.556Z,99.43
2022-12-03T18:00:12.113Z,99.43
2022-12-03T18:02:39.248Z,95.53
2022-12-03T18:05:06.589Z,96.45
2022-12-03T18:07:33.800Z,91.50
2022-12-03T18:10:01.062Z,90.28
2022-12-03T18:12:30.138Z,89.53
2022-12-03T18:14:57.290Z,89.55
2022-12-03T18:17:24.715Z,83.45
2022-12-03T18:19:52.147Z,85.65
2022-12-03T18:22:19.970Z,82.22
2022-12-03T18:24:50.232Z,84.22
2022-12-03T18:27:18.918Z,82.60
2022-12-03T18:29:46.068Z,80.45
2022-12-03T18:32:27.553Z,78.40
2022-12-03T18:34:55.980Z,79.70
2022-12-03T18:37:23.460Z,74.95
2022-12-03T18:39:50.638Z,76.05
2022-12-03T18:42:19.312Z,76.97
2022-12-03T18:44:49.862Z,76.43
2022-12-03T18:47:19.075Z,68.88
2022-12-03T18:49:46.384Z,74.45
2022-12-03T18:52:17.379Z,70.38
2022-12-03T18:54:44.607Z,68.13
2022-12-03T18:57:12.108Z,68.40
2022-12-03T18:59:39.500Z,69.68
2022-12-03T19:02:07.626Z,68.45
2022-12-03T19:04:34.910Z,68.55
2022-12-03T19:07:03.645Z,67.55
2022-12-03T19:09:30.957Z,66.63
2022-12-03T19:11:58.167Z,68.82
2022-12-03T19:14:25.283Z,65.75
2022-12-03T19:16:52.495Z,65.45
2022-12-03T19:19:19.684Z,66.57
2022-12-03T19:21:46.828Z,63.65
2022-12-03T19:24:24.396Z,65.18
2022-12-03T19:26:54.673Z,62.58
2022-12-03T19:29:22.904Z,63.85
2022-12-03T19:31:51.176Z,63.83
2022-12-03T19:34:18.525Z,63.38
2022-12-03T19:36:45.766Z,60.15
2022-12-03T19:39:13.006Z,61.53
2022-12-03T19:41:41.895Z,60.55
2022-12-03T19:44:11.026Z,61.47
2022-12-03T19:46:38.424Z,58.92
2022-12-03T19:49:08.775Z,57.17
2022-12-03T19:51:36.278Z,56.28
2022-12-03T19:54:04.736Z,55.15
2022-12-03T19:56:32.304Z,56.25
2022-12-03T19:58:59.605Z,54.72
2022-12-03T20:01:28.285Z,53.50
2022-12-03T20:03:56.301Z,55.20
2022-12-03T20:06:25.425Z,57.85
2022-12-03T20:08:56.697Z,55.60
2022-12-03T20:11:25.320Z,54.17
2022-12-03T20:13:53.911Z,48.17
2022-12-03T20:16:21.266Z,54.88
2022-12-03T20:18:49.504Z,55.10
2022-12-03T20:21:17.454Z,53.00
2022-12-03T20:23:45.766Z,53.22
2022-12-03T20:26:17.440Z,50.15
2022-12-03T20:28:44.835Z,51.75
2022-12-03T20:31:13.690Z,49.28
2022-12-03T20:33:42.115Z,49.90
2022-12-03T20:36:09.740Z,50.88
2022-12-03T20:38:38.504Z,50.03
2022-12-03T20:41:06.800Z,50.97
2022-12-03T20:43:33.958Z,49.00
2022-12-03T20:46:11.427Z,45.97
2022-12-03T20:48:39.070Z,47.08
2022-12-03T20:51:07.202Z,47.35
2022-12-03T20:53:35.090Z,45.42
2022-12-03T20:56:02.836Z,50.60
2022-12-03T20:58:31.049Z,48.30
2022-12-03T21:01:20.881Z,48.28
2022-12-03T21:03:48.530Z,46.38
2022-12-03T21:06:15.961Z,47.35
2022-12-03T21:08:44.289Z,46.67
2022-12-03T21:11:12.775Z,45.42
2022-12-03T21:13:43.948Z,44.35
2022-12-03T21:16:13.553Z,45.22
2022-12-03T21:18:40.811Z,46.40
2022-12-03T21:21:08.703Z,43.67
2022-12-03T21:23:36.447Z,44.20
2022-12-03T21:26:11.081Z,43.75
2022-12-03T21:28:38.944Z,43.97
2022-12-03T21:31:08.382Z,41.40
2022-12-03T21:33:36.079Z,43.28
2022-12-03T21:36:03.800Z,40.47
2022-12-03T21:38:31.752Z,42.67
2022-12-03T21:40:59.096Z,41.88
2022-12-03T21:43:26.616Z,42.35
2022-12-03T21:45:54.040Z,41.25
2022-12-03T21:48:21.273Z,39.83
2022-12-03T21:50:58.990Z,40.40
2022-12-03T21:53:26.291Z,39.20
2022-12-03T21:55:53.401Z,39.17
2022-12-03T21:58:20.553Z,39.15
2022-12-03T22:00:47.736Z,39.10
2022-12-03T22:03:14.967Z,38.42
2022-12-03T22:05:42.230Z,39.28
2022-12-03T22:08:09.607Z,40.50
2022-12-03T22:10:37.239Z,37.10
2022-12-03T22:13:04.387Z,35.55
2022-12-03T22:15:31.567Z,36.67
2022-12-03T22:17:58.793Z,39.03
2022-12-03T22:20:25.904Z,38.08
2022-12-03T22:22:53.098Z,37.22
2022-12-03T22:25:20.252Z,34.13
2022-12-03T22:27:47.411Z,37.65
2022-12-03T22:30:14.693Z,38.78
2022-12-03T22:32:41.847Z,37.42
2022-12-03T22:35:09.178Z,36.97
2022-12-03T22:37:36.420Z,35.97
2022-12-03T22:40:03.699Z,36.80
2022-12-03T22:42:30.899Z,37.22
2022-12-03T22:44:58.256Z,36.58
2022-12-03T22:47:25.430Z,34.35
2022-12-03T22:49:52.719Z,37.08
2022-12-03T22:52:19.996Z,35.20
2022-12-03T22:54:47.205Z,36.10
2022-12-03T22:57:14.352Z,35.55
2022-12-03T22:59:41.516Z,35.38
2022-12-03T23:02:08.701Z,35.03
2022-12-03T23:04:35.897Z,34.55
2022-12-03T23:07:03.087Z,35.63
2022-12-03T23:09:30.187Z,35.22
2022-12-03T23:11:57.455Z,35.70
2022-12-03T23:14:24.668Z,35.60
2022-12-03T23:16:51.786Z,31.95
2022-12-03T23:19:19.853Z,34.88
2022-12-03T23:21:47.108Z,34.47
2022-12-03T23:24:14.230Z,34.88
2022-12-03T23:26:41.410Z,33.75
2022-12-03T23:29:08.810Z,32.63
2022-12-03T23:31:36.159Z,32.67
2022-12-03T23:34:04.025Z,35.90
2022-12-03T23:36:32.635Z,34.42
2022-12-03T23:39:00.126Z,35.08
2022-12-03T23:41:27.526Z,35.17
2022-12-03T23:43:54.810Z,34.03
2022-12-03T23:46:23.512Z,34.00
2022-12-03T23:48:51.180Z,34.20
2022-12-03T23:51:19.912Z,33.20
2022-12-03T23:53:47.473Z,31.80
2022-12-03T23:56:16.111Z,32.92
2022-12-03T23:58:43.584Z,31.75
